sensor_id;sensor_type;location;lat;lon;timestamp;temperature;humidity
75927;DHT22;64605;48.296;16.416;2023-04-25T00:00:04;12.90;64.20
75927;DHT22;64605;48.296;16.416;2023-04-25T00:02:32;12.90;63.70
75927;DHT22;64605;48.296;16.416;2023-04-25T00:05:00;12.80;63.40
75927;DHT22;64605;48.296;16.416;2023-04-25T00:07:27;12.80;63.20
75927;DHT22;64605;48.296;16.416;2023-04-25T00:09:53;12.80;63.10
75927;DHT22;64605;48.296;16.416;2023-04-25T00:12:18;12.90;62.80
75927;DHT22;64605;48.296;16.416;2023-04-25T00:14:44;12.80;63.00
75927;DHT22;64605;48.296;16.416;2023-04-25T00:17:11;12.80;62.70
75927;DHT22;64605;48.296;16.416;2023-04-25T00:19:36;12.90;62.70
75927;DHT22;64605;48.296;16.416;2023-04-25T00:22:03;12.80;61.70
75927;DHT22;64605;48.296;16.416;2023-04-25T00:24:29;12.80;62.20
75927;DHT22;64605;48.296;16.416;2023-04-25T00:26:55;12.90;62.70
75927;DHT22;64605;48.296;16.416;2023-04-25T00:29:20;12.80;61.50
75927;DHT22;64605;48.296;16.416;2023-04-25T00:31:46;12.80;61.40
75927;DHT22;64605;48.296;16.416;2023-04-25T00:34:12;12.80;61.60
75927;DHT22;64605;48.296;16.416;2023-04-25T00:36:37;12.80;61.60
75927;DHT22;64605;48.296;16.416;2023-04-25T00:39:03;12.80;62.00
75927;DHT22;64605;48.296;16.416;2023-04-25T00:41:30;12.80;62.10
75927;DHT22;64605;48.296;16.416;2023-04-25T00:43:56;12.70;62.60
75927;DHT22;64605;48.296;16.416;2023-04-25T00:46:22;12.70;62.20
75927;DHT22;64605;48.296;16.416;2023-04-25T00:48:47;12.70;62.40
75927;DHT22;64605;48.296;16.416;2023-04-25T00:51:19;12.70;62.40
75927;DHT22;64605;48.296;16.416;2023-04-25T00:53:45;12.70;62.40
75927;DHT22;64605;48.296;16.416;2023-04-25T00:56:11;12.70;62.50
75927;DHT22;64605;48.296;16.416;2023-04-25T00:58:38;12.80;62.90
75927;DHT22;64605;48.296;16.416;2023-04-25T01:01:06;12.80;62.90
75927;DHT22;64605;48.296;16.416;2023-04-25T01:03:33;12.70;62.70
75927;DHT22;64605;48.296;16.416;2023-04-25T01:06:01;12.70;64.00
75927;DHT22;64605;48.296;16.416;2023-04-25T01:08:28;12.70;63.00
75927;DHT22;64605;48.296;16.416;2023-04-25T01:10:53;12.70;63.00
75927;DHT22;64605;48.296;16.416;2023-04-25T01:13:19;12.60;62.80
75927;DHT22;64605;48.296;16.416;2023-04-25T01:15:45;12.60;63.20
75927;DHT22;64605;48.296;16.416;2023-04-25T01:18:11;12.60;63.00
75927;DHT22;64605;48.296;16.416;2023-04-25T01:20:38;12.60;63.30
75927;DHT22;64605;48.296;16.416;2023-04-25T01:23:05;12.60;63.00
75927;DHT22;64605;48.296;16.416;2023-04-25T01:25:31;12.60;62.80
75927;DHT22;64605;48.296;16.416;2023-04-25T01:27:58;12.60;63.00
75927;DHT22;64605;48.296;16.416;2023-04-25T01:30:26;12.60;62.90
75927;DHT22;64605;48.296;16.416;2023-04-25T01:32:55;12.60;62.80
75927;DHT22;64605;48.296;16.416;2023-04-25T01:35:21;12.70;62.70
75927;DHT22;64605;48.296;16.416;2023-04-25T01:37:50;12.60;62.70
75927;DHT22;64605;48.296;16.416;2023-04-25T01:40:17;12.60;62.70
75927;DHT22;64605;48.296;16.416;2023-04-25T01:42:44;12.60;63.10
75927;DHT22;64605;48.296;16.416;2023-04-25T01:45:11;12.60;63.10
75927;DHT22;64605;48.296;16.416;2023-04-25T01:47:38;12.60;63.00
75927;DHT22;64605;48.296;16.416;2023-04-25T01:50:06;12.50;62.90
75927;DHT22;64605;48.296;16.416;2023-04-25T01:52:31;12.60;63.00
75927;DHT22;64605;48.296;16.416;2023-04-25T01:55:00;12.60;63.70
75927;DHT22;64605;48.296;16.416;2023-04-25T01:57:26;12.60;63.20
75927;DHT22;64605;48.296;16.416;2023-04-25T01:59:58;12.60;62.40
75927;DHT22;64605;48.296;16.416;2023-04-25T02:02:24;12.60;62.60
75927;DHT22;64605;48.296;16.416;2023-04-25T02:04:50;12.60;62.40
75927;DHT22;64605;48.296;16.416;2023-04-25T02:07:15;12.60;62.30
75927;DHT22;64605;48.296;16.416;2023-04-25T02:09:41;12.60;62.60
75927;DHT22;64605;48.296;16.416;2023-04-25T02:12:09;12.60;62.80
75927;DHT22;64605;48.296;16.416;2023-04-25T02:14:35;12.60;62.40
75927;DHT22;64605;48.296;16.416;2023-04-25T02:17:00;12.60;62.50
75927;DHT22;64605;48.296;16.416;2023-04-25T02:19:26;12.60;62.30
75927;DHT22;64605;48.296;16.416;2023-04-25T02:21:51;12.50;61.40
75927;DHT22;64605;48.296;16.416;2023-04-25T02:24:17;12.50;61.90
75927;DHT22;64605;48.296;16.416;2023-04-25T02:26:43;12.50;62.10
75927;DHT22;64605;48.296;16.416;2023-04-25T02:29:10;12.50;62.10
75927;DHT22;64605;48.296;16.416;2023-04-25T02:31:35;12.60;62.20
75927;DHT22;64605;48.296;16.416;2023-04-25T02:34:01;12.50;61.70
75927;DHT22;64605;48.296;16.416;2023-04-25T02:36:27;12.50;61.90
75927;DHT22;64605;48.296;16.416;2023-04-25T02:38:53;12.50;62.10
75927;DHT22;64605;48.296;16.416;2023-04-25T02:41:18;12.50;61.90
75927;DHT22;64605;48.296;16.416;2023-04-25T02:43:44;12.40;61.30
75927;DHT22;64605;48.296;16.416;2023-04-25T02:46:10;12.40;61.90
75927;DHT22;64605;48.296;16.416;2023-04-25T02:48:35;12.30;61.90
75927;DHT22;64605;48.296;16.416;2023-04-25T02:51:01;12.30;62.20
75927;DHT22;64605;48.296;16.416;2023-04-25T02:53:27;12.30;62.40
75927;DHT22;64605;48.296;16.416;2023-04-25T02:55:52;12.20;62.40
75927;DHT22;64605;48.296;16.416;2023-04-25T02:58:18;12.20;62.40
75927;DHT22;64605;48.296;16.416;2023-04-25T03:00:44;12.20;62.90
75927;DHT22;64605;48.296;16.416;2023-04-25T03:03:10;12.20;63.00
75927;DHT22;64605;48.296;16.416;2023-04-25T03:05:36;12.10;63.00
75927;DHT22;64605;48.296;16.416;2023-04-25T03:08:01;12.10;62.70
75927;DHT22;64605;48.296;16.416;2023-04-25T03:10:27;12.10;62.90
75927;DHT22;64605;48.296;16.416;2023-04-25T03:12:53;12.10;62.90
75927;DHT22;64605;48.296;16.416;2023-04-25T03:15:18;12.10;62.80
75927;DHT22;64605;48.296;16.416;2023-04-25T03:17:44;12.10;63.00
75927;DHT22;64605;48.296;16.416;2023-04-25T03:20:10;12.00;62.70
75927;DHT22;64605;48.296;16.416;2023-04-25T03:22:36;12.00;62.70
75927;DHT22;64605;48.296;16.416;2023-04-25T03:25:02;12.00;62.10
75927;DHT22;64605;48.296;16.416;2023-04-25T03:27:28;12.00;62.70
75927;DHT22;64605;48.296;16.416;2023-04-25T03:29:53;12.00;62.00
75927;DHT22;64605;48.296;16.416;2023-04-25T03:32:19;12.00;62.30
75927;DHT22;64605;48.296;16.416;2023-04-25T03:34:45;12.00;62.40
75927;DHT22;64605;48.296;16.416;2023-04-25T03:37:10;12.00;62.90
75927;DHT22;64605;48.296;16.416;2023-04-25T03:39:36;12.00;62.90
75927;DHT22;64605;48.296;16.416;2023-04-25T03:42:03;11.90;62.70
75927;DHT22;64605;48.296;16.416;2023-04-25T03:44:28;11.90;62.70
75927;DHT22;64605;48.296;16.416;2023-04-25T03:46:54;11.90;63.10
75927;DHT22;64605;48.296;16.416;2023-04-25T03:49:20;11.90;63.00
75927;DHT22;64605;48.296;16.416;2023-04-25T03:51:46;11.90;63.00
75927;DHT22;64605;48.296;16.416;2023-04-25T03:54:11;11.80;63.00
75927;DHT22;64605;48.296;16.416;2023-04-25T03:56:37;11.80;63.30
75927;DHT22;64605;48.296;16.416;2023-04-25T03:59:02;11.70;63.50
75927;DHT22;64605;48.296;16.416;2023-04-25T04:01:28;11.70;63.50
75927;DHT22;64605;48.296;16.416;2023-04-25T04:03:54;11.80;63.40
75927;DHT22;64605;48.296;16.416;2023-04-25T04:06:20;11.70;63.60
75927;DHT22;64605;48.296;16.416;2023-04-25T04:08:46;11.70;63.70
75927;DHT22;64605;48.296;16.416;2023-04-25T04:11:12;11.80;63.90
75927;DHT22;64605;48.296;16.416;2023-04-25T04:13:37;11.70;63.70
75927;DHT22;64605;48.296;16.416;2023-04-25T04:16:03;11.70;63.70
75927;DHT22;64605;48.296;16.416;2023-04-25T04:18:29;11.70;64.00
75927;DHT22;64605;48.296;16.416;2023-04-25T04:20:55;11.70;64.20
75927;DHT22;64605;48.296;16.416;2023-04-25T04:23:23;11.70;63.90
75927;DHT22;64605;48.296;16.416;2023-04-25T04:25:49;11.80;63.90
75927;DHT22;64605;48.296;16.416;2023-04-25T04:28:15;11.70;63.60
75927;DHT22;64605;48.296;16.416;2023-04-25T04:30:41;11.70;63.70
75927;DHT22;64605;48.296;16.416;2023-04-25T04:33:08;11.70;63.70
75927;DHT22;64605;48.296;16.416;2023-04-25T04:35:34;11.70;63.60
75927;DHT22;64605;48.296;16.416;2023-04-25T04:38:00;11.70;63.60
75927;DHT22;64605;48.296;16.416;2023-04-25T04:40:25;11.80;63.80
75927;DHT22;64605;48.296;16.416;2023-04-25T04:42:51;11.80;63.40
75927;DHT22;64605;48.296;16.416;2023-04-25T04:45:18;11.80;63.30
75927;DHT22;64605;48.296;16.416;2023-04-25T04:47:44;11.90;63.60
75927;DHT22;64605;48.296;16.416;2023-04-25T04:50:11;11.80;63.10
75927;DHT22;64605;48.296;16.416;2023-04-25T04:52:37;11.90;63.10
75927;DHT22;64605;48.296;16.416;2023-04-25T04:55:04;12.00;63.00
75927;DHT22;64605;48.296;16.416;2023-04-25T04:57:31;12.10;62.90
75927;DHT22;64605;48.296;16.416;2023-04-25T04:59:58;12.10;62.10
75927;DHT22;64605;48.296;16.416;2023-04-25T05:02:24;12.10;61.90
75927;DHT22;64605;48.296;16.416;2023-04-25T05:04:50;12.10;62.40
75927;DHT22;64605;48.296;16.416;2023-04-25T05:07:17;12.20;62.30
75927;DHT22;64605;48.296;16.416;2023-04-25T05:09:43;12.20;61.50
75927;DHT22;64605;48.296;16.416;2023-04-25T05:12:09;12.20;61.30
75927;DHT22;64605;48.296;16.416;2023-04-25T05:14:34;12.20;61.20
75927;DHT22;64605;48.296;16.416;2023-04-25T05:17:00;12.20;60.70
75927;DHT22;64605;48.296;16.416;2023-04-25T05:19:26;12.10;62.20
75927;DHT22;64605;48.296;16.416;2023-04-25T05:21:52;12.10;61.10
75927;DHT22;64605;48.296;16.416;2023-04-25T05:24:17;12.10;61.10
75927;DHT22;64605;48.296;16.416;2023-04-25T05:26:43;12.10;61.30
75927;DHT22;64605;48.296;16.416;2023-04-25T05:29:09;12.00;61.40
75927;DHT22;64605;48.296;16.416;2023-04-25T05:31:35;12.00;61.70
75927;DHT22;64605;48.296;16.416;2023-04-25T05:34:01;12.00;62.00
75927;DHT22;64605;48.296;16.416;2023-04-25T05:36:27;11.90;61.50
75927;DHT22;64605;48.296;16.416;2023-04-25T05:38:53;11.90;61.60
75927;DHT22;64605;48.296;16.416;2023-04-25T05:41:18;11.90;61.80
75927;DHT22;64605;48.296;16.416;2023-04-25T05:43:44;11.90;62.00
75927;DHT22;64605;48.296;16.416;2023-04-25T05:46:12;11.90;62.00
75927;DHT22;64605;48.296;16.416;2023-04-25T05:48:39;12.00;61.70
75927;DHT22;64605;48.296;16.416;2023-04-25T05:51:05;12.00;62.30
75927;DHT22;64605;48.296;16.416;2023-04-25T05:53:30;12.10;62.10
75927;DHT22;64605;48.296;16.416;2023-04-25T05:55:56;12.30;62.40
75927;DHT22;64605;48.296;16.416;2023-04-25T05:58:22;12.40;61.00
75927;DHT22;64605;48.296;16.416;2023-04-25T06:00:47;12.50;60.40
75927;DHT22;64605;48.296;16.416;2023-04-25T06:03:13;12.60;60.40
75927;DHT22;64605;48.296;16.416;2023-04-25T06:05:42;12.70;59.90
75927;DHT22;64605;48.296;16.416;2023-04-25T06:08:08;12.90;60.10
75927;DHT22;64605;48.296;16.416;2023-04-25T06:10:35;13.10;59.50
75927;DHT22;64605;48.296;16.416;2023-04-25T06:13:01;13.20;58.70
75927;DHT22;64605;48.296;16.416;2023-04-25T06:15:26;13.30;58.90
75927;DHT22;64605;48.296;16.416;2023-04-25T06:17:52;13.50;59.00
75927;DHT22;64605;48.296;16.416;2023-04-25T06:20:18;13.60;57.60
75927;DHT22;64605;48.296;16.416;2023-04-25T06:22:48;13.80;56.90
75927;DHT22;64605;48.296;16.416;2023-04-25T06:25:14;13.90;56.80
75927;DHT22;64605;48.296;16.416;2023-04-25T06:27:39;14.00;54.90
75927;DHT22;64605;48.296;16.416;2023-04-25T06:30:06;14.00;54.60
75927;DHT22;64605;48.296;16.416;2023-04-25T06:32:31;14.20;55.30
75927;DHT22;64605;48.296;16.416;2023-04-25T06:34:57;14.40;55.50
75927;DHT22;64605;48.296;16.416;2023-04-25T06:37:23;14.50;53.90
75927;DHT22;64605;48.296;16.416;2023-04-25T06:39:49;14.60;53.30
75927;DHT22;64605;48.296;16.416;2023-04-25T06:42:14;14.80;53.00
75927;DHT22;64605;48.296;16.416;2023-04-25T06:44:40;15.00;53.00
75927;DHT22;64605;48.296;16.416;2023-04-25T06:47:06;15.10;52.20
75927;DHT22;64605;48.296;16.416;2023-04-25T06:49:31;15.30;52.20
75927;DHT22;64605;48.296;16.416;2023-04-25T06:51:57;15.40;52.00
75927;DHT22;64605;48.296;16.416;2023-04-25T06:54:22;15.60;50.90
75927;DHT22;64605;48.296;16.416;2023-04-25T06:56:50;15.70;50.40
75927;DHT22;64605;48.296;16.416;2023-04-25T06:59:16;15.80;50.30
75927;DHT22;64605;48.296;16.416;2023-04-25T07:01:41;16.00;50.00
75927;DHT22;64605;48.296;16.416;2023-04-25T07:04:07;16.00;48.90
75927;DHT22;64605;48.296;16.416;2023-04-25T07:06:33;16.20;49.10
75927;DHT22;64605;48.296;16.416;2023-04-25T07:08:58;16.30;48.90
75927;DHT22;64605;48.296;16.416;2023-04-25T07:11:24;16.50;48.20
75927;DHT22;64605;48.296;16.416;2023-04-25T07:13:50;16.80;47.80
75927;DHT22;64605;48.296;16.416;2023-04-25T07:16:16;17.10;47.10
75927;DHT22;64605;48.296;16.416;2023-04-25T07:18:42;18.10;46.30
75927;DHT22;64605;48.296;16.416;2023-04-25T07:21:07;20.40;43.90
75927;DHT22;64605;48.296;16.416;2023-04-25T07:23:33;22.30;40.50
75927;DHT22;64605;48.296;16.416;2023-04-25T07:25:59;23.90;36.60
75927;DHT22;64605;48.296;16.416;2023-04-25T07:28:24;25.40;33.50
75927;DHT22;64605;48.296;16.416;2023-04-25T07:30:50;26.60;31.10
75927;DHT22;64605;48.296;16.416;2023-04-25T07:33:16;27.50;31.20
75927;DHT22;64605;48.296;16.416;2023-04-25T07:35:41;28.60;29.40
75927;DHT22;64605;48.296;16.416;2023-04-25T07:38:07;28.80;28.40
75927;DHT22;64605;48.296;16.416;2023-04-25T07:40:33;29.60;27.90
75927;DHT22;64605;48.296;16.416;2023-04-25T07:42:59;31.00;26.80
75927;DHT22;64605;48.296;16.416;2023-04-25T07:45:26;32.00;24.00
75927;DHT22;64605;48.296;16.416;2023-04-25T07:47:51;33.40;23.90
75927;DHT22;64605;48.296;16.416;2023-04-25T07:50:17;34.40;22.40
75927;DHT22;64605;48.296;16.416;2023-04-25T07:52:43;35.10;22.00
75927;DHT22;64605;48.296;16.416;2023-04-25T07:55:08;35.80;20.90
75927;DHT22;64605;48.296;16.416;2023-04-25T07:57:34;36.60;20.40
75927;DHT22;64605;48.296;16.416;2023-04-25T08:00:00;37.50;19.40
75927;DHT22;64605;48.296;16.416;2023-04-25T08:02:26;37.90;18.70
75927;DHT22;64605;48.296;16.416;2023-04-25T08:04:53;38.60;18.20
75927;DHT22;64605;48.296;16.416;2023-04-25T08:07:19;39.40;18.00
75927;DHT22;64605;48.296;16.416;2023-04-25T08:09:45;39.70;16.80
75927;DHT22;64605;48.296;16.416;2023-04-25T08:12:10;39.60;17.00
75927;DHT22;64605;48.296;16.416;2023-04-25T08:14:36;40.40;15.90
75927;DHT22;64605;48.296;16.416;2023-04-25T08:17:03;40.80;16.00
75927;DHT22;64605;48.296;16.416;2023-04-25T08:19:29;40.80;15.30
75927;DHT22;64605;48.296;16.416;2023-04-25T08:21:56;41.20;14.80
75927;DHT22;64605;48.296;16.416;2023-04-25T08:24:22;41.40;15.10
75927;DHT22;64605;48.296;16.416;2023-04-25T08:26:48;41.60;15.40
75927;DHT22;64605;48.296;16.416;2023-04-25T08:29:14;41.50;14.50
75927;DHT22;64605;48.296;16.416;2023-04-25T08:31:39;42.10;14.60
75927;DHT22;64605;48.296;16.416;2023-04-25T08:34:05;42.60;14.00
75927;DHT22;64605;48.296;16.416;2023-04-25T08:36:31;42.70;13.60
75927;DHT22;64605;48.296;16.416;2023-04-25T08:38:58;42.60;13.60
75927;DHT22;64605;48.296;16.416;2023-04-25T08:41:24;42.70;14.00
75927;DHT22;64605;48.296;16.416;2023-04-25T08:43:51;43.30;14.10
75927;DHT22;64605;48.296;16.416;2023-04-25T08:46:19;43.90;13.70
75927;DHT22;64605;48.296;16.416;2023-04-25T08:48:45;43.80;13.40
75927;DHT22;64605;48.296;16.416;2023-04-25T08:51:19;42.30;13.00
75927;DHT22;64605;48.296;16.416;2023-04-25T08:53:49;39.50;14.60
75927;DHT22;64605;48.296;16.416;2023-04-25T08:56:16;36.60;15.90
75927;DHT22;64605;48.296;16.416;2023-04-25T08:58:49;34.40;17.50
75927;DHT22;64605;48.296;16.416;2023-04-25T09:01:15;32.40;18.90
75927;DHT22;64605;48.296;16.416;2023-04-25T09:03:42;31.60;20.10
75927;DHT22;64605;48.296;16.416;2023-04-25T09:06:11;33.30;21.40
75927;DHT22;64605;48.296;16.416;2023-04-25T09:08:37;35.80;20.50
75927;DHT22;64605;48.296;16.416;2023-04-25T09:11:03;38.00;18.40
75927;DHT22;64605;48.296;16.416;2023-04-25T09:13:29;39.20;17.30
75927;DHT22;64605;48.296;16.416;2023-04-25T09:15:56;40.30;15.90
75927;DHT22;64605;48.296;16.416;2023-04-25T09:20:49;41.80;14.50
75927;DHT22;64605;48.296;16.416;2023-04-25T09:23:14;40.80;14.00
75927;DHT22;64605;48.296;16.416;2023-04-25T09:25:40;38.00;14.90
75927;DHT22;64605;48.296;16.416;2023-04-25T09:28:08;34.90;17.80
75927;DHT22;64605;48.296;16.416;2023-04-25T09:30:35;32.60;19.50
75927;DHT22;64605;48.296;16.416;2023-04-25T09:33:11;31.10;20.90
75927;DHT22;64605;48.296;16.416;2023-04-25T09:35:42;30.20;21.80
75927;DHT22;64605;48.296;16.416;2023-04-25T09:38:13;30.90;23.50
75927;DHT22;64605;48.296;16.416;2023-04-25T09:40:42;33.60;22.10
75927;DHT22;64605;48.296;16.416;2023-04-25T09:43:10;35.30;19.80
75927;DHT22;64605;48.296;16.416;2023-04-25T09:45:42;35.20;18.40
75927;DHT22;64605;48.296;16.416;2023-04-25T09:48:17;33.80;18.30
75927;DHT22;64605;48.296;16.416;2023-04-25T09:50:44;31.80;19.10
75927;DHT22;64605;48.296;16.416;2023-04-25T09:53:10;30.10;20.10
75927;DHT22;64605;48.296;16.416;2023-04-25T09:55:36;28.60;20.60
75927;DHT22;64605;48.296;16.416;2023-04-25T09:58:06;27.20;22.70
75927;DHT22;64605;48.296;16.416;2023-04-25T10:00:33;25.50;26.40
75927;DHT22;64605;48.296;16.416;2023-04-25T10:03:04;24.40;29.10
75927;DHT22;64605;48.296;16.416;2023-04-25T10:05:32;23.20;31.00
75927;DHT22;64605;48.296;16.416;2023-04-25T10:08:03;22.10;33.70
75927;DHT22;64605;48.296;16.416;2023-04-25T10:10:32;21.30;35.20
75927;DHT22;64605;48.296;16.416;2023-04-25T10:13:03;20.10;37.90
75927;DHT22;64605;48.296;16.416;2023-04-25T10:15:29;19.60;37.80
75927;DHT22;64605;48.296;16.416;2023-04-25T10:17:56;19.60;38.70
75927;DHT22;64605;48.296;16.416;2023-04-25T10:20:22;19.20;41.20
75927;DHT22;64605;48.296;16.416;2023-04-25T10:22:48;18.90;42.90
75927;DHT22;64605;48.296;16.416;2023-04-25T10:25:19;19.00;42.90
75927;DHT22;64605;48.296;16.416;2023-04-25T10:27:45;19.20;42.60
75927;DHT22;64605;48.296;16.416;2023-04-25T10:30:14;19.70;43.00
75927;DHT22;64605;48.296;16.416;2023-04-25T10:32:43;21.30;42.10
75927;DHT22;64605;48.296;16.416;2023-04-25T10:35:19;23.90;35.50
75927;DHT22;64605;48.296;16.416;2023-04-25T10:37:58;27.00;32.30
75927;DHT22;64605;48.296;16.416;2023-04-25T10:40:24;29.80;27.90
75927;DHT22;64605;48.296;16.416;2023-04-25T10:42:52;32.00;26.40
75927;DHT22;64605;48.296;16.416;2023-04-25T10:45:20;33.00;24.80
75927;DHT22;64605;48.296;16.416;2023-04-25T10:47:45;33.90;23.40
75927;DHT22;64605;48.296;16.416;2023-04-25T10:50:11;33.70;22.50
75927;DHT22;64605;48.296;16.416;2023-04-25T10:52:39;32.80;22.60
75927;DHT22;64605;48.296;16.416;2023-04-25T10:55:08;32.00;22.60
75927;DHT22;64605;48.296;16.416;2023-04-25T10:57:41;31.50;22.50
75927;DHT22;64605;48.296;16.416;2023-04-25T11:00:15;30.30;22.10
75927;DHT22;64605;48.296;16.416;2023-04-25T11:02:46;30.50;23.10
75927;DHT22;64605;48.296;16.416;2023-04-25T11:05:38;30.70;23.00
75927;DHT22;64605;48.296;16.416;2023-04-25T11:08:11;30.40;23.10
75927;DHT22;64605;48.296;16.416;2023-04-25T11:10:37;29.40;23.10
75927;DHT22;64605;48.296;16.416;2023-04-25T11:13:05;28.50;23.40
75927;DHT22;64605;48.296;16.416;2023-04-25T11:15:31;27.60;24.80
75927;DHT22;64605;48.296;16.416;2023-04-25T11:17:56;27.00;26.10
75927;DHT22;64605;48.296;16.416;2023-04-25T11:20:24;26.50;26.40
75927;DHT22;64605;48.296;16.416;2023-04-25T11:22:51;25.90;26.10
75927;DHT22;64605;48.296;16.416;2023-04-25T11:25:17;25.60;26.40
75927;DHT22;64605;48.296;16.416;2023-04-25T11:27:56;25.20;27.60
75927;DHT22;64605;48.296;16.416;2023-04-25T11:30:24;24.70;30.40
75927;DHT22;64605;48.296;16.416;2023-04-25T11:32:50;23.80;31.00
75927;DHT22;64605;48.296;16.416;2023-04-25T11:35:18;23.30;31.50
75927;DHT22;64605;48.296;16.416;2023-04-25T11:37:44;22.80;33.40
75927;DHT22;64605;48.296;16.416;2023-04-25T11:40:11;22.70;34.90
75927;DHT22;64605;48.296;16.416;2023-04-25T11:42:45;22.40;36.10
75927;DHT22;64605;48.296;16.416;2023-04-25T11:45:11;22.60;36.30
75927;DHT22;64605;48.296;16.416;2023-04-25T11:47:38;22.80;36.50
75927;DHT22;64605;48.296;16.416;2023-04-25T11:50:05;22.90;36.10
75927;DHT22;64605;48.296;16.416;2023-04-25T11:52:42;23.00;34.90
75927;DHT22;64605;48.296;16.416;2023-04-25T11:55:14;22.80;33.50
75927;DHT22;64605;48.296;16.416;2023-04-25T11:57:41;22.90;32.60
75927;DHT22;64605;48.296;16.416;2023-04-25T12:02:37;22.60;31.40
75927;DHT22;64605;48.296;16.416;2023-04-25T12:05:07;22.90;30.70
75927;DHT22;64605;48.296;16.416;2023-04-25T12:07:34;22.80;31.40
75927;DHT22;64605;48.296;16.416;2023-04-25T12:10:03;22.70;30.70
75927;DHT22;64605;48.296;16.416;2023-04-25T12:12:32;22.40;30.20
75927;DHT22;64605;48.296;16.416;2023-04-25T12:15:15;22.20;33.70
75927;DHT22;64605;48.296;16.416;2023-04-25T12:17:48;22.40;31.70
75927;DHT22;64605;48.296;16.416;2023-04-25T12:20:23;22.60;32.20
75927;DHT22;64605;48.296;16.416;2023-04-25T12:22:49;22.70;32.20
75927;DHT22;64605;48.296;16.416;2023-04-25T12:25:38;22.70;30.20
75927;DHT22;64605;48.296;16.416;2023-04-25T12:33:21;22.00;32.50
75927;DHT22;64605;48.296;16.416;2023-04-25T12:35:47;22.00;33.40
75927;DHT22;64605;48.296;16.416;2023-04-25T12:38:24;22.00;32.50
75927;DHT22;64605;48.296;16.416;2023-04-25T12:40:50;22.40;33.70
75927;DHT22;64605;48.296;16.416;2023-04-25T12:43:16;22.30;33.30
75927;DHT22;64605;48.296;16.416;2023-04-25T12:45:42;22.10;31.80
75927;DHT22;64605;48.296;16.416;2023-04-25T12:48:08;22.00;32.20
75927;DHT22;64605;48.296;16.416;2023-04-25T12:50:33;21.90;32.80
75927;DHT22;64605;48.296;16.416;2023-04-25T12:52:59;21.90;32.80
75927;DHT22;64605;48.296;16.416;2023-04-25T12:55:25;22.00;32.60
75927;DHT22;64605;48.296;16.416;2023-04-25T12:57:51;21.80;31.90
75927;DHT22;64605;48.296;16.416;2023-04-25T13:00:17;22.10;30.70
75927;DHT22;64605;48.296;16.416;2023-04-25T13:02:45;22.40;32.10
75927;DHT22;64605;48.296;16.416;2023-04-25T13:05:12;22.50;31.30
75927;DHT22;64605;48.296;16.416;2023-04-25T13:07:38;22.50;30.70
75927;DHT22;64605;48.296;16.416;2023-04-25T13:10:04;22.40;30.90
75927;DHT22;64605;48.296;16.416;2023-04-25T13:12:31;22.10;31.20
75927;DHT22;64605;48.296;16.416;2023-04-25T13:14:57;21.90;30.30
75927;DHT22;64605;48.296;16.416;2023-04-25T13:17:22;21.70;31.00
75927;DHT22;64605;48.296;16.416;2023-04-25T13:19:48;21.30;30.70
75927;DHT22;64605;48.296;16.416;2023-04-25T13:22:14;21.10;32.00
75927;DHT22;64605;48.296;16.416;2023-04-25T13:24:42;21.10;32.40
75927;DHT22;64605;48.296;16.416;2023-04-25T13:27:08;21.00;32.10
75927;DHT22;64605;48.296;16.416;2023-04-25T13:29:33;20.80;31.70
75927;DHT22;64605;48.296;16.416;2023-04-25T13:32:01;20.70;32.40
75927;DHT22;64605;48.296;16.416;2023-04-25T13:34:30;20.50;30.90
75927;DHT22;64605;48.296;16.416;2023-04-25T13:36:56;20.50;31.70
75927;DHT22;64605;48.296;16.416;2023-04-25T13:39:22;20.30;32.60
75927;DHT22;64605;48.296;16.416;2023-04-25T13:41:48;20.10;32.60
75927;DHT22;64605;48.296;16.416;2023-04-25T13:44:14;20.20;33.80
75927;DHT22;64605;48.296;16.416;2023-04-25T13:46:40;20.30;34.00
75927;DHT22;64605;48.296;16.416;2023-04-25T13:49:06;20.30;33.10
75927;DHT22;64605;48.296;16.416;2023-04-25T13:51:31;20.30;32.90
75927;DHT22;64605;48.296;16.416;2023-04-25T13:53:57;20.60;33.60
75927;DHT22;64605;48.296;16.416;2023-04-25T13:56:23;20.70;33.80
75927;DHT22;64605;48.296;16.416;2023-04-25T13:58:52;21.00;33.00
75927;DHT22;64605;48.296;16.416;2023-04-25T14:01:18;21.00;31.90
75927;DHT22;64605;48.296;16.416;2023-04-25T14:03:45;21.20;32.50
75927;DHT22;64605;48.296;16.416;2023-04-25T14:06:11;21.30;33.00
75927;DHT22;64605;48.296;16.416;2023-04-25T14:08:38;21.20;33.10
75927;DHT22;64605;48.296;16.416;2023-04-25T14:11:04;21.00;33.70
75927;DHT22;64605;48.296;16.416;2023-04-25T14:13:29;20.70;34.30
75927;DHT22;64605;48.296;16.416;2023-04-25T14:15:55;20.30;35.40
75927;DHT22;64605;48.296;16.416;2023-04-25T14:18:21;20.00;37.40
75927;DHT22;64605;48.296;16.416;2023-04-25T14:20:47;19.60;39.40
75927;DHT22;64605;48.296;16.416;2023-04-25T14:23:13;19.30;40.30
75927;DHT22;64605;48.296;16.416;2023-04-25T14:25:39;19.20;39.30
75927;DHT22;64605;48.296;16.416;2023-04-25T14:28:05;19.10;39.20
75927;DHT22;64605;48.296;16.416;2023-04-25T14:30:31;19.10;39.70
75927;DHT22;64605;48.296;16.416;2023-04-25T14:32:57;19.10;39.90
75927;DHT22;64605;48.296;16.416;2023-04-25T14:35:22;19.20;39.40
75927;DHT22;64605;48.296;16.416;2023-04-25T14:37:48;19.10;39.20
75927;DHT22;64605;48.296;16.416;2023-04-25T14:40:14;19.00;38.90
75927;DHT22;64605;48.296;16.416;2023-04-25T14:42:41;19.10;38.80
75927;DHT22;64605;48.296;16.416;2023-04-25T14:45:07;19.20;37.90
75927;DHT22;64605;48.296;16.416;2023-04-25T14:47:34;19.30;37.30
75927;DHT22;64605;48.296;16.416;2023-04-25T14:50:01;19.20;37.50
75927;DHT22;64605;48.296;16.416;2023-04-25T14:52:27;19.00;37.20
75927;DHT22;64605;48.296;16.416;2023-04-25T14:54:53;18.80;37.30
75927;DHT22;64605;48.296;16.416;2023-04-25T14:57:19;18.80;38.40
75927;DHT22;64605;48.296;16.416;2023-04-25T14:59:44;19.00;38.50
75927;DHT22;64605;48.296;16.416;2023-04-25T15:02:11;18.90;40.10
75927;DHT22;64605;48.296;16.416;2023-04-25T15:04:37;18.70;39.10
75927;DHT22;64605;48.296;16.416;2023-04-25T15:07:02;18.60;39.60
75927;DHT22;64605;48.296;16.416;2023-04-25T15:09:29;18.40;40.20
75927;DHT22;64605;48.296;16.416;2023-04-25T15:11:55;18.50;41.40
75927;DHT22;64605;48.296;16.416;2023-04-25T15:14:21;18.60;41.40
75927;DHT22;64605;48.296;16.416;2023-04-25T15:16:46;18.60;41.50
75927;DHT22;64605;48.296;16.416;2023-04-25T15:19:12;18.50;41.30
75927;DHT22;64605;48.296;16.416;2023-04-25T15:21:38;18.30;41.30